sensor_id;sensor_type;location;lat;lon;timestamp;P1;durP1;ratioP1;P2;durP2;ratioP2
71087;SDS011;58747;50.674;4.616;2023-01-13T00:02:20;2.30;;;0.55;;
71087;SDS011;58747;50.674;4.616;2023-01-13T00:04:45;6.23;;;0.73;;
71087;SDS011;58747;50.674;4.616;2023-01-13T00:07:11;1.77;;;0.53;;
71087;SDS011;58747;50.674;4.616;2023-01-13T00:09:36;3.87;;;1.00;;
71087;SDS011;58747;50.674;4.616;2023-01-13T00:12:02;2.17;;;0.53;;
71087;SDS011;58747;50.674;4.616;2023-01-13T00:14:28;6.10;;;0.70;;
71087;SDS011;58747;50.674;4.616;2023-01-13T00:16:57;2.92;;;0.43;;
71087;SDS011;58747;50.674;4.616;2023-01-13T00:19:22;4.50;;;0.70;;
71087;SDS011;58747;50.674;4.616;2023-01-13T00:21:47;3.60;;;0.63;;
71087;SDS011;58747;50.674;4.616;2023-01-13T00:24:13;3.93;;;0.60;;
71087;SDS011;58747;50.674;4.616;2023-01-13T00:26:38;2.00;;;0.60;;
71087;SDS011;58747;50.674;4.616;2023-01-13T00:29:03;5.03;;;0.67;;
71087;SDS011;58747;50.674;4.616;2023-01-13T00:31:29;4.43;;;1.13;;
71087;SDS011;58747;50.674;4.616;2023-01-13T00:33:55;3.30;;;0.70;;
71087;SDS011;58747;50.674;4.616;2023-01-13T00:36:21;2.63;;;0.77;;
71087;SDS011;58747;50.674;4.616;2023-01-13T00:38:46;1.90;;;0.83;;
71087;SDS011;58747;50.674;4.616;2023-01-13T00:41:13;1.50;;;0.68;;
71087;SDS011;58747;50.674;4.616;2023-01-13T00:43:41;6.93;;;0.80;;
71087;SDS011;58747;50.674;4.616;2023-01-13T00:46:09;3.57;;;0.73;;
71087;SDS011;58747;50.674;4.616;2023-01-13T00:48:36;1.80;;;0.60;;
71087;SDS011;58747;50.674;4.616;2023-01-13T00:51:03;3.65;;;0.68;;
71087;SDS011;58747;50.674;4.616;2023-01-13T00:53:36;1.83;;;0.80;;
71087;SDS011;58747;50.674;4.616;2023-01-13T00:56:21;4.68;;;0.65;;
71087;SDS011;58747;50.674;4.616;2023-01-13T00:58:48;4.77;;;0.53;;
71087;SDS011;58747;50.674;4.616;2023-01-13T01:01:16;4.25;;;1.00;;
71087;SDS011;58747;50.674;4.616;2023-01-13T01:03:43;4.47;;;0.63;;
71087;SDS011;58747;50.674;4.616;2023-01-13T01:06:12;1.58;;;0.60;;
71087;SDS011;58747;50.674;4.616;2023-01-13T01:08:39;2.08;;;0.25;;
71087;SDS011;58747;50.674;4.616;2023-01-13T01:11:06;3.77;;;0.60;;
71087;SDS011;58747;50.674;4.616;2023-01-13T01:13:33;1.95;;;0.43;;
71087;SDS011;58747;50.674;4.616;2023-01-13T01:16:02;1.85;;;0.80;;
71087;SDS011;58747;50.674;4.616;2023-01-13T01:18:30;3.50;;;0.45;;
71087;SDS011;58747;50.674;4.616;2023-01-13T01:21:01;1.27;;;0.63;;
71087;SDS011;58747;50.674;4.616;2023-01-13T01:23:27;4.43;;;0.80;;
71087;SDS011;58747;50.674;4.616;2023-01-13T01:25:53;4.07;;;0.75;;
71087;SDS011;58747;50.674;4.616;2023-01-13T01:28:19;7.78;;;0.70;;
71087;SDS011;58747;50.674;4.616;2023-01-13T01:30:44;3.60;;;0.97;;
71087;SDS011;58747;50.674;4.616;2023-01-13T01:33:10;5.23;;;1.03;;
71087;SDS011;58747;50.674;4.616;2023-01-13T01:35:38;3.33;;;1.00;;
71087;SDS011;58747;50.674;4.616;2023-01-13T01:38:04;6.00;;;1.20;;
71087;SDS011;58747;50.674;4.616;2023-01-13T01:40:29;3.85;;;0.80;;
71087;SDS011;58747;50.674;4.616;2023-01-13T01:42:55;6.47;;;1.03;;
71087;SDS011;58747;50.674;4.616;2023-01-13T01:45:38;7.50;;;0.93;;
71087;SDS011;58747;50.674;4.616;2023-01-13T01:48:04;5.45;;;0.82;;
71087;SDS011;58747;50.674;4.616;2023-01-13T01:50:30;4.73;;;0.90;;
71087;SDS011;58747;50.674;4.616;2023-01-13T01:53:01;4.65;;;0.82;;
71087;SDS011;58747;50.674;4.616;2023-01-13T01:55:34;5.80;;;1.10;;
71087;SDS011;58747;50.674;4.616;2023-01-13T01:58:17;5.15;;;1.08;;
71087;SDS011;58747;50.674;4.616;2023-01-13T02:00:49;10.27;;;1.20;;
71087;SDS011;58747;50.674;4.616;2023-01-13T02:03:15;14.77;;;1.73;;
71087;SDS011;58747;50.674;4.616;2023-01-13T02:05:41;2.93;;;0.70;;
71087;SDS011;58747;50.674;4.616;2023-01-13T02:08:08;9.32;;;1.48;;
71087;SDS011;58747;50.674;4.616;2023-01-13T02:10:35;1.80;;;0.27;;
71087;SDS011;58747;50.674;4.616;2023-01-13T02:13:03;5.65;;;0.95;;
71087;SDS011;58747;50.674;4.616;2023-01-13T02:23:35;4.13;;;1.10;;
71087;SDS011;58747;50.674;4.616;2023-01-13T02:26:24;7.38;;;1.27;;
71087;SDS011;58747;50.674;4.616;2023-01-13T02:32:27;1.90;;;0.52;;
71087;SDS011;58747;50.674;4.616;2023-01-13T02:37:42;6.33;;;0.97;;
71087;SDS011;58747;50.674;4.616;2023-01-13T02:40:11;6.45;;;0.70;;
71087;SDS011;58747;50.674;4.616;2023-01-13T02:46:00;7.32;;;1.23;;
71087;SDS011;58747;50.674;4.616;2023-01-13T02:49:03;7.78;;;1.42;;
71087;SDS011;58747;50.674;4.616;2023-01-13T02:51:31;4.40;;;1.10;;
71087;SDS011;58747;50.674;4.616;2023-01-13T02:54:02;8.02;;;0.80;;
71087;SDS011;58747;50.674;4.616;2023-01-13T02:56:36;6.32;;;1.30;;
71087;SDS011;58747;50.674;4.616;2023-01-13T02:59:05;6.82;;;1.00;;
71087;SDS011;58747;50.674;4.616;2023-01-13T03:01:31;4.53;;;1.00;;
71087;SDS011;58747;50.674;4.616;2023-01-13T03:03:56;5.43;;;1.13;;
71087;SDS011;58747;50.674;4.616;2023-01-13T03:06:36;4.17;;;0.90;;
71087;SDS011;58747;50.674;4.616;2023-01-13T03:09:26;8.55;;;1.20;;
71087;SDS011;58747;50.674;4.616;2023-01-13T03:14:42;4.32;;;1.05;;
71087;SDS011;58747;50.674;4.616;2023-01-13T03:17:36;5.38;;;1.17;;
71087;SDS011;58747;50.674;4.616;2023-01-13T03:20:06;7.63;;;0.98;;
71087;SDS011;58747;50.674;4.616;2023-01-13T03:25:30;5.03;;;0.80;;
71087;SDS011;58747;50.674;4.616;2023-01-13T03:28:04;4.22;;;1.15;;
71087;SDS011;58747;50.674;4.616;2023-01-13T03:30:36;6.40;;;1.13;;
71087;SDS011;58747;50.674;4.616;2023-01-13T03:33:09;4.00;;;0.55;;
71087;SDS011;58747;50.674;4.616;2023-01-13T03:35:41;3.17;;;0.57;;
71087;SDS011;58747;50.674;4.616;2023-01-13T03:38:10;5.20;;;1.03;;
71087;SDS011;58747;50.674;4.616;2023-01-13T03:40:40;8.60;;;1.10;;
71087;SDS011;58747;50.674;4.616;2023-01-13T03:43:11;6.00;;;1.10;;
71087;SDS011;58747;50.674;4.616;2023-01-13T03:46:00;10.77;;;0.80;;
71087;SDS011;58747;50.674;4.616;2023-01-13T03:48:31;4.75;;;0.80;;
71087;SDS011;58747;50.674;4.616;2023-01-13T03:51:04;7.53;;;1.40;;
71087;SDS011;58747;50.674;4.616;2023-01-13T03:53:38;10.00;;;0.88;;
71087;SDS011;58747;50.674;4.616;2023-01-13T03:56:26;8.13;;;1.52;;
71087;SDS011;58747;50.674;4.616;2023-01-13T03:58:56;4.20;;;0.90;;
71087;SDS011;58747;50.674;4.616;2023-01-13T04:01:32;6.32;;;1.77;;
71087;SDS011;58747;50.674;4.616;2023-01-13T04:04:07;5.43;;;1.00;;
71087;SDS011;58747;50.674;4.616;2023-01-13T04:12:09;3.65;;;0.57;;
71087;SDS011;58747;50.674;4.616;2023-01-13T04:14:38;2.72;;;0.57;;
71087;SDS011;58747;50.674;4.616;2023-01-13T04:17:04;2.80;;;0.60;;
71087;SDS011;58747;50.674;4.616;2023-01-13T04:19:30;5.55;;;0.65;;
71087;SDS011;58747;50.674;4.616;2023-01-13T04:21:56;6.07;;;0.80;;
71087;SDS011;58747;50.674;4.616;2023-01-13T04:24:22;5.72;;;0.88;;
71087;SDS011;58747;50.674;4.616;2023-01-13T04:26:47;4.53;;;1.00;;
71087;SDS011;58747;50.674;4.616;2023-01-13T04:29:13;5.07;;;0.77;;
71087;SDS011;58747;50.674;4.616;2023-01-13T04:31:38;6.20;;;1.17;;
71087;SDS011;58747;50.674;4.616;2023-01-13T04:34:04;10.77;;;1.17;;
71087;SDS011;58747;50.674;4.616;2023-01-13T04:36:30;6.20;;;0.87;;
71087;SDS011;58747;50.674;4.616;2023-01-13T04:38:55;1.33;;;0.73;;
71087;SDS011;58747;50.674;4.616;2023-01-13T04:41:21;6.03;;;0.77;;
71087;SDS011;58747;50.674;4.616;2023-01-13T04:43:46;5.07;;;0.83;;
71087;SDS011;58747;50.674;4.616;2023-01-13T04:46:11;5.80;;;0.97;;
71087;SDS011;58747;50.674;4.616;2023-01-13T04:48:37;5.83;;;0.90;;
71087;SDS011;58747;50.674;4.616;2023-01-13T04:51:02;8.10;;;0.98;;
71087;SDS011;58747;50.674;4.616;2023-01-13T04:53:28;5.13;;;1.00;;
71087;SDS011;58747;50.674;4.616;2023-01-13T04:55:53;5.47;;;1.00;;
71087;SDS011;58747;50.674;4.616;2023-01-13T04:58:18;3.10;;;1.53;;
71087;SDS011;58747;50.674;4.616;2023-01-13T05:00:44;5.57;;;0.82;;
71087;SDS011;58747;50.674;4.616;2023-01-13T05:03:10;2.97;;;0.50;;
71087;SDS011;58747;50.674;4.616;2023-01-13T05:05:35;5.57;;;0.90;;
71087;SDS011;58747;50.674;4.616;2023-01-13T05:08:02;5.77;;;0.90;;
71087;SDS011;58747;50.674;4.616;2023-01-13T05:10:28;4.72;;;0.70;;
71087;SDS011;58747;50.674;4.616;2023-01-13T05:12:53;4.87;;;0.70;;
71087;SDS011;58747;50.674;4.616;2023-01-13T05:15:40;4.68;;;0.52;;
71087;SDS011;58747;50.674;4.616;2023-01-13T05:18:24;9.10;;;1.30;;
71087;SDS011;58747;50.674;4.616;2023-01-13T05:20:51;7.65;;;1.40;;
71087;SDS011;58747;50.674;4.616;2023-01-13T05:23:16;3.90;;;0.80;;
71087;SDS011;58747;50.674;4.616;2023-01-13T05:26:00;1.63;;;0.77;;
71087;SDS011;58747;50.674;4.616;2023-01-13T05:28:29;2.23;;;0.50;;
71087;SDS011;58747;50.674;4.616;2023-01-13T05:30:56;3.97;;;1.27;;
71087;SDS011;58747;50.674;4.616;2023-01-13T05:33:21;4.13;;;0.80;;
71087;SDS011;58747;50.674;4.616;2023-01-13T05:35:46;0.93;;;0.30;;
71087;SDS011;58747;50.674;4.616;2023-01-13T05:38:13;2.90;;;1.00;;
71087;SDS011;58747;50.674;4.616;2023-01-13T05:40:40;1.02;;;0.50;;
71087;SDS011;58747;50.674;4.616;2023-01-13T05:43:25;4.47;;;0.77;;
71087;SDS011;58747;50.674;4.616;2023-01-13T05:46:04;4.78;;;0.70;;
71087;SDS011;58747;50.674;4.616;2023-01-13T05:48:32;2.92;;;0.68;;
71087;SDS011;58747;50.674;4.616;2023-01-13T05:51:00;1.55;;;0.30;;
71087;SDS011;58747;50.674;4.616;2023-01-13T05:53:26;4.68;;;0.60;;
71087;SDS011;58747;50.674;4.616;2023-01-13T05:55:52;7.77;;;1.30;;
71087;SDS011;58747;50.674;4.616;2023-01-13T05:58:19;5.45;;;0.98;;
71087;SDS011;58747;50.674;4.616;2023-01-13T06:00:46;8.43;;;1.20;;
71087;SDS011;58747;50.674;4.616;2023-01-13T06:03:11;5.23;;;1.20;;
71087;SDS011;58747;50.674;4.616;2023-01-13T06:05:37;5.00;;;1.02;;
71087;SDS011;58747;50.674;4.616;2023-01-13T06:08:03;2.17;;;0.60;;
71087;SDS011;58747;50.674;4.616;2023-01-13T06:10:30;8.00;;;1.65;;
71087;SDS011;58747;50.674;4.616;2023-01-13T06:12:56;7.13;;;1.43;;
71087;SDS011;58747;50.674;4.616;2023-01-13T06:15:22;5.97;;;1.87;;
71087;SDS011;58747;50.674;4.616;2023-01-13T06:17:48;4.22;;;1.80;;
71087;SDS011;58747;50.674;4.616;2023-01-13T06:20:13;7.80;;;1.37;;
71087;SDS011;58747;50.674;4.616;2023-01-13T06:22:41;9.15;;;2.17;;
71087;SDS011;58747;50.674;4.616;2023-01-13T06:27:55;8.23;;;1.67;;
71087;SDS011;58747;50.674;4.616;2023-01-13T06:30:22;9.73;;;2.20;;
71087;SDS011;58747;50.674;4.616;2023-01-13T06:32:50;9.77;;;0.63;;
71087;SDS011;58747;50.674;4.616;2023-01-13T06:35:17;10.13;;;2.17;;
71087;SDS011;58747;50.674;4.616;2023-01-13T06:37:48;8.70;;;1.50;;
71087;SDS011;58747;50.674;4.616;2023-01-13T06:40:17;11.30;;;1.83;;
71087;SDS011;58747;50.674;4.616;2023-01-13T06:42:42;8.30;;;1.33;;
71087;SDS011;58747;50.674;4.616;2023-01-13T06:45:27;8.35;;;1.40;;
71087;SDS011;58747;50.674;4.616;2023-01-13T06:47:55;10.75;;;1.35;;
71087;SDS011;58747;50.674;4.616;2023-01-13T06:50:22;7.83;;;1.03;;
71087;SDS011;58747;50.674;4.616;2023-01-13T06:52:47;12.10;;;1.30;;
71087;SDS011;58747;50.674;4.616;2023-01-13T06:55:13;6.57;;;1.50;;
71087;SDS011;58747;50.674;4.616;2023-01-13T06:57:46;9.67;;;1.77;;
71087;SDS011;58747;50.674;4.616;2023-01-13T07:00:19;7.65;;;1.02;;
71087;SDS011;58747;50.674;4.616;2023-01-13T07:02:45;5.60;;;1.30;;
71087;SDS011;58747;50.674;4.616;2023-01-13T07:05:11;12.27;;;1.92;;
71087;SDS011;58747;50.674;4.616;2023-01-13T07:07:37;7.43;;;1.50;;
71087;SDS011;58747;50.674;4.616;2023-01-13T07:10:03;4.97;;;1.27;;
71087;SDS011;58747;50.674;4.616;2023-01-13T07:12:29;11.98;;;2.15;;
71087;SDS011;58747;50.674;4.616;2023-01-13T07:14:54;9.50;;;1.67;;
71087;SDS011;58747;50.674;4.616;2023-01-13T07:17:38;8.90;;;2.08;;
71087;SDS011;58747;50.674;4.616;2023-01-13T07:20:04;11.10;;;1.60;;
71087;SDS011;58747;50.674;4.616;2023-01-13T07:22:29;10.15;;;1.73;;
71087;SDS011;58747;50.674;4.616;2023-01-13T07:24:55;10.40;;;1.20;;
71087;SDS011;58747;50.674;4.616;2023-01-13T07:27:22;12.48;;;4.95;;
71087;SDS011;58747;50.674;4.616;2023-01-13T07:29:47;13.87;;;2.87;;
71087;SDS011;58747;50.674;4.616;2023-01-13T07:32:12;11.63;;;2.57;;
71087;SDS011;58747;50.674;4.616;2023-01-13T07:34:39;12.10;;;2.13;;
71087;SDS011;58747;50.674;4.616;2023-01-13T07:37:05;12.20;;;2.77;;
71087;SDS011;58747;50.674;4.616;2023-01-13T07:39:30;8.87;;;3.27;;
71087;SDS011;58747;50.674;4.616;2023-01-13T07:41:55;12.13;;;3.38;;
71087;SDS011;58747;50.674;4.616;2023-01-13T07:44:39;9.30;;;1.00;;
71087;SDS011;58747;50.674;4.616;2023-01-13T07:47:05;10.13;;;2.60;;
71087;SDS011;58747;50.674;4.616;2023-01-13T07:49:32;11.60;;;1.92;;
71087;SDS011;58747;50.674;4.616;2023-01-13T07:51:57;10.07;;;2.47;;
71087;SDS011;58747;50.674;4.616;2023-01-13T07:54:23;8.60;;;1.50;;
71087;SDS011;58747;50.674;4.616;2023-01-13T07:56:48;14.00;;;2.15;;
71087;SDS011;58747;50.674;4.616;2023-01-13T07:59:13;10.20;;;2.20;;
71087;SDS011;58747;50.674;4.616;2023-01-13T08:01:39;9.20;;;2.40;;
71087;SDS011;58747;50.674;4.616;2023-01-13T08:04:05;12.23;;;2.83;;
71087;SDS011;58747;50.674;4.616;2023-01-13T08:06:30;16.43;;;2.80;;
71087;SDS011;58747;50.674;4.616;2023-01-13T08:08:56;8.47;;;1.63;;
71087;SDS011;58747;50.674;4.616;2023-01-13T08:11:22;8.13;;;2.15;;
71087;SDS011;58747;50.674;4.616;2023-01-13T08:13:48;16.60;;;1.70;;
71087;SDS011;58747;50.674;4.616;2023-01-13T08:16:14;8.63;;;2.13;;
71087;SDS011;58747;50.674;4.616;2023-01-13T08:18:40;15.93;;;2.95;;
71087;SDS011;58747;50.674;4.616;2023-01-13T08:21:07;7.38;;;1.25;;
71087;SDS011;58747;50.674;4.616;2023-01-13T08:23:37;19.20;;;1.90;;
71087;SDS011;58747;50.674;4.616;2023-01-13T08:26:03;13.27;;;1.03;;
71087;SDS011;58747;50.674;4.616;2023-01-13T08:28:30;11.60;;;2.05;;
71087;SDS011;58747;50.674;4.616;2023-01-13T08:31:00;8.85;;;1.52;;
71087;SDS011;58747;50.674;4.616;2023-01-13T08:33:27;9.77;;;1.67;;
71087;SDS011;58747;50.674;4.616;2023-01-13T08:35:53;9.10;;;1.60;;
71087;SDS011;58747;50.674;4.616;2023-01-13T08:38:19;7.18;;;2.22;;
71087;SDS011;58747;50.674;4.616;2023-01-13T08:40:44;14.70;;;2.03;;
71087;SDS011;58747;50.674;4.616;2023-01-13T08:43:09;12.90;;;1.47;;
71087;SDS011;58747;50.674;4.616;2023-01-13T08:45:35;12.00;;;1.33;;
71087;SDS011;58747;50.674;4.616;2023-01-13T08:48:01;8.60;;;2.10;;
71087;SDS011;58747;50.674;4.616;2023-01-13T08:50:27;11.47;;;2.43;;
71087;SDS011;58747;50.674;4.616;2023-01-13T08:52:52;5.72;;;1.52;;
71087;SDS011;58747;50.674;4.616;2023-01-13T08:55:18;11.53;;;2.07;;
71087;SDS011;58747;50.674;4.616;2023-01-13T08:57:43;10.90;;;2.30;;
71087;SDS011;58747;50.674;4.616;2023-01-13T09:00:09;13.60;;;2.63;;
71087;SDS011;58747;50.674;4.616;2023-01-13T09:02:35;12.60;;;2.40;;
71087;SDS011;58747;50.674;4.616;2023-01-13T09:05:02;19.63;;;4.13;;
71087;SDS011;58747;50.674;4.616;2023-01-13T09:07:31;16.10;;;2.63;;
71087;SDS011;58747;50.674;4.616;2023-01-13T09:09:59;8.02;;;2.35;;
71087;SDS011;58747;50.674;4.616;2023-01-13T09:12:25;7.70;;;3.07;;
71087;SDS011;58747;50.674;4.616;2023-01-13T09:15:09;10.95;;;1.80;;
71087;SDS011;58747;50.674;4.616;2023-01-13T09:17:35;9.50;;;2.57;;
71087;SDS011;58747;50.674;4.616;2023-01-13T09:20:00;8.67;;;3.13;;
71087;SDS011;58747;50.674;4.616;2023-01-13T09:22:26;9.97;;;2.53;;
71087;SDS011;58747;50.674;4.616;2023-01-13T09:24:51;25.00;;;6.63;;
71087;SDS011;58747;50.674;4.616;2023-01-13T09:27:18;10.40;;;2.45;;
71087;SDS011;58747;50.674;4.616;2023-01-13T09:29:43;11.77;;;1.90;;
71087;SDS011;58747;50.674;4.616;2023-01-13T09:32:10;11.73;;;2.67;;
71087;SDS011;58747;50.674;4.616;2023-01-13T09:34:36;8.70;;;1.75;;
71087;SDS011;58747;50.674;4.616;2023-01-13T09:37:20;13.60;;;1.60;;
71087;SDS011;58747;50.674;4.616;2023-01-13T09:39:45;13.67;;;2.70;;
71087;SDS011;58747;50.674;4.616;2023-01-13T09:42:16;11.63;;;1.50;;
71087;SDS011;58747;50.674;4.616;2023-01-13T09:45:11;12.07;;;1.80;;
71087;SDS011;58747;50.674;4.616;2023-01-13T09:47:45;9.57;;;1.48;;
71087;SDS011;58747;50.674;4.616;2023-01-13T09:52:37;14.23;;;2.77;;
71087;SDS011;58747;50.674;4.616;2023-01-13T09:55:04;5.23;;;1.67;;
71087;SDS011;58747;50.674;4.616;2023-01-13T09:57:35;13.07;;;2.00;;
71087;SDS011;58747;50.674;4.616;2023-01-13T10:00:03;10.27;;;1.92;;
71087;SDS011;58747;50.674;4.616;2023-01-13T10:02:45;9.70;;;2.53;;
71087;SDS011;58747;50.674;4.616;2023-01-13T10:08:12;12.73;;;2.42;;
71087;SDS011;58747;50.674;4.616;2023-01-13T10:10:50;13.27;;;2.75;;
71087;SDS011;58747;50.674;4.616;2023-01-13T10:13:28;6.72;;;1.52;;
71087;SDS011;58747;50.674;4.616;2023-01-13T10:21:21;9.88;;;2.00;;
71087;SDS011;58747;50.674;4.616;2023-01-13T10:26:24;14.10;;;1.70;;
71087;SDS011;58747;50.674;4.616;2023-01-13T10:28:55;8.10;;;1.50;;
71087;SDS011;58747;50.674;4.616;2023-01-13T10:31:22;10.60;;;1.65;;
71087;SDS011;58747;50.674;4.616;2023-01-13T10:33:56;7.03;;;1.40;;
71087;SDS011;58747;50.674;4.616;2023-01-13T10:36:27;10.15;;;1.95;;
71087;SDS011;58747;50.674;4.616;2023-01-13T10:38:53;6.30;;;1.30;;
71087;SDS011;58747;50.674;4.616;2023-01-13T10:41:31;8.25;;;1.50;;
71087;SDS011;58747;50.674;4.616;2023-01-13T10:43:58;8.02;;;2.42;;
71087;SDS011;58747;50.674;4.616;2023-01-13T10:46:30;9.73;;;1.97;;
71087;SDS011;58747;50.674;4.616;2023-01-13T10:48:58;7.82;;;1.77;;
71087;SDS011;58747;50.674;4.616;2023-01-13T10:56:38;9.77;;;2.10;;
71087;SDS011;58747;50.674;4.616;2023-01-13T10:59:23;11.20;;;1.90;;
71087;SDS011;58747;50.674;4.616;2023-01-13T11:07:35;11.35;;;2.47;;
71087;SDS011;58747;50.674;4.616;2023-01-13T11:15:46;11.23;;;2.28;;
71087;SDS011;58747;50.674;4.616;2023-01-13T11:21:07;15.30;;;2.45;;
71087;SDS011;58747;50.674;4.616;2023-01-13T11:23:42;9.85;;;2.53;;
71087;SDS011;58747;50.674;4.616;2023-01-13T11:26:26;14.03;;;2.77;;
71087;SDS011;58747;50.674;4.616;2023-01-13T11:32:22;14.95;;;3.15;;
71087;SDS011;58747;50.674;4.616;2023-01-13T11:34:49;12.55;;;3.17;;
71087;SDS011;58747;50.674;4.616;2023-01-13T11:47:41;19.38;;;2.78;;
71087;SDS011;58747;50.674;4.616;2023-01-13T11:50:26;11.02;;;2.95;;
71087;SDS011;58747;50.674;4.616;2023-01-13T12:15:57;12.82;;;2.63;;
71087;SDS011;58747;50.674;4.616;2023-01-13T12:18:36;15.90;;;2.10;;
71087;SDS011;58747;50.674;4.616;2023-01-13T12:21:29;17.20;;;2.73;;
71087;SDS011;58747;50.674;4.616;2023-01-13T12:26:41;14.52;;;2.65;;
71087;SDS011;58747;50.674;4.616;2023-01-13T12:29:17;9.20;;;1.77;;
71087;SDS011;58747;50.674;4.616;2023-01-13T12:31:44;16.77;;;2.47;;
71087;SDS011;58747;50.674;4.616;2023-01-13T12:40:10;10.15;;;2.00;;
71087;SDS011;58747;50.674;4.616;2023-01-13T12:45:45;18.63;;;2.42;;
71087;SDS011;58747;50.674;4.616;2023-01-13T12:48:43;13.30;;;2.07;;
71087;SDS011;58747;50.674;4.616;2023-01-13T12:53:52;17.17;;;1.90;;
71087;SDS011;58747;50.674;4.616;2023-01-13T12:56:42;14.95;;;2.00;;
71087;SDS011;58747;50.674;4.616;2023-01-13T13:01:44;25.27;;;2.88;;
71087;SDS011;58747;50.674;4.616;2023-01-13T13:04:40;9.70;;;1.90;;
71087;SDS011;58747;50.674;4.616;2023-01-13T13:07:25;12.47;;;2.20;;
71087;SDS011;58747;50.674;4.616;2023-01-13T13:10:00;12.38;;;2.45;;
71087;SDS011;58747;50.674;4.616;2023-01-13T13:23:25;13.75;;;3.33;;
71087;SDS011;58747;50.674;4.616;2023-01-13T13:28:32;9.67;;;1.40;;
71087;SDS011;58747;50.674;4.616;2023-01-13T13:31:10;7.70;;;1.73;;
71087;SDS011;58747;50.674;4.616;2023-01-13T13:33:55;10.40;;;1.63;;
71087;SDS011;58747;50.674;4.616;2023-01-13T13:45:20;9.68;;;2.25;;
71087;SDS011;58747;50.674;4.616;2023-01-13T13:50:49;12.18;;;3.15;;
71087;SDS011;58747;50.674;4.616;2023-01-13T13:53:27;6.57;;;1.50;;
71087;SDS011;58747;50.674;4.616;2023-01-13T13:55:57;13.40;;;2.00;;
71087;SDS011;58747;50.674;4.616;2023-01-13T13:58:24;8.60;;;1.42;;
71087;SDS011;58747;50.674;4.616;2023-01-13T14:00:51;5.65;;;1.50;;
71087;SDS011;58747;50.674;4.616;2023-01-13T14:06:17;15.13;;;2.08;;
71087;SDS011;58747;50.674;4.616;2023-01-13T14:08:44;12.40;;;1.60;;
71087;SDS011;58747;50.674;4.616;2023-01-13T14:11:32;12.77;;;2.13;;
71087;SDS011;58747;50.674;4.616;2023-01-13T14:16:27;7.35;;;1.33;;
71087;SDS011;58747;50.674;4.616;2023-01-13T14:18:53;15.37;;;2.10;;
71087;SDS011;58747;50.674;4.616;2023-01-13T14:21:19;12.30;;;2.13;;
71087;SDS011;58747;50.674;4.616;2023-01-13T14:23:49;7.40;;;1.40;;
71087;SDS011;58747;50.674;4.616;2023-01-13T14:26:21;12.23;;;1.70;;
71087;SDS011;58747;50.674;4.616;2023-01-13T14:28:48;8.05;;;1.80;;
71087;SDS011;58747;50.674;4.616;2023-01-13T14:31:13;9.07;;;2.50;;
71087;SDS011;58747;50.674;4.616;2023-01-13T14:33:46;13.25;;;1.95;;
71087;SDS011;58747;50.674;4.616;2023-01-13T14:36:21;13.33;;;2.00;;
71087;SDS011;58747;50.674;4.616;2023-01-13T14:41:28;13.73;;;2.65;;
71087;SDS011;58747;50.674;4.616;2023-01-13T14:46:54;14.23;;;1.85;;
71087;SDS011;58747;50.674;4.616;2023-01-13T14:52:19;13.27;;;2.47;;
71087;SDS011;58747;50.674;4.616;2023-01-13T14:54:51;10.27;;;1.98;;
71087;SDS011;58747;50.674;4.616;2023-01-13T14:59:55;9.35;;;1.75;;
71087;SDS011;58747;50.674;4.616;2023-01-13T15:02:33;10.43;;;1.60;;
71087;SDS011;58747;50.674;4.616;2023-01-13T15:07:49;4.63;;;1.85;;
71087;SDS011;58747;50.674;4.616;2023-01-13T15:10:27;7.22;;;1.52;;
71087;SDS011;58747;50.674;4.616;2023-01-13T15:12:58;13.32;;;2.50;;
71087;SDS011;58747;50.674;4.616;2023-01-13T15:15:29;16.07;;;2.80;;
71087;SDS011;58747;50.674;4.616;2023-01-13T15:17:57;14.38;;;2.10;;
71087;SDS011;58747;50.674;4.616;2023-01-13T15:20:24;10.68;;;1.52;;
71087;SDS011;58747;50.674;4.616;2023-01-13T15:22:51;8.70;;;1.63;;
71087;SDS011;58747;50.674;4.616;2023-01-13T15:29:02;8.50;;;2.10;;
71087;SDS011;58747;50.674;4.616;2023-01-13T15:31:51;14.60;;;4.53;;
71087;SDS011;58747;50.674;4.616;2023-01-13T15:34:57;9.57;;;2.85;;
71087;SDS011;58747;50.674;4.616;2023-01-13T15:37:22;15.43;;;2.83;;
71087;SDS011;58747;50.674;4.616;2023-01-13T15:39:51;11.48;;;2.42;;
71087;SDS011;58747;50.674;4.616;2023-01-13T15:42:16;11.60;;;2.03;;
71087;SDS011;58747;50.674;4.616;2023-01-13T15:44:59;17.00;;;2.13;;
71087;SDS011;58747;50.674;4.616;2023-01-13T15:47:43;8.40;;;2.00;;
71087;SDS011;58747;50.674;4.616;2023-01-13T15:50:13;10.90;;;2.53;;
71087;SDS011;58747;50.674;4.616;2023-01-13T15:52:39;7.43;;;1.70;;
71087;SDS011;58747;50.674;4.616;2023-01-13T15:55:05;13.00;;;3.10;;
71087;SDS011;58747;50.674;4.616;2023-01-13T15:57:31;9.23;;;1.80;;
71087;SDS011;58747;50.674;4.616;2023-01-13T15:59:59;12.13;;;2.05;;
71087;SDS011;58747;50.674;4.616;2023-01-13T16:02:28;8.38;;;2.30;;
71087;SDS011;58747;50.674;4.616;2023-01-13T16:04:54;12.00;;;3.00;;
71087;SDS011;58747;50.674;4.616;2023-01-13T16:07:20;9.38;;;2.35;;
71087;SDS011;58747;50.674;4.616;2023-01-13T16:09:47;9.90;;;2.00;;
71087;SDS011;58747;50.674;4.616;2023-01-13T16:12:13;14.43;;;3.13;;
71087;SDS011;58747;50.674;4.616;2023-01-13T16:14:38;12.07;;;2.30;;
71087;SDS011;58747;50.674;4.616;2023-01-13T16:17:14;11.40;;;2.23;;
71087;SDS011;58747;50.674;4.616;2023-01-13T16:19:42;15.95;;;2.97;;
71087;SDS011;58747;50.674;4.616;2023-01-13T16:22:09;12.38;;;3.05;;
71087;SDS011;58747;50.674;4.616;2023-01-13T16:24:35;17.85;;;2.85;;
71087;SDS011;58747;50.674;4.616;2023-01-13T16:27:01;21.07;;;2.40;;
71087;SDS011;58747;50.674;4.616;2023-01-13T16:29:29;13.55;;;2.38;;
71087;SDS011;58747;50.674;4.616;2023-01-13T16:31:54;12.13;;;2.30;;
71087;SDS011;58747;50.674;4.616;2023-01-13T16:34:19;5.97;;;1.93;;
71087;SDS011;58747;50.674;4.616;2023-01-13T16:36:45;24.37;;;3.70;;
71087;SDS011;58747;50.674;4.616;2023-01-13T16:39:20;16.75;;;2.83;;
71087;SDS011;58747;50.674;4.616;2023-01-13T16:41:46;14.90;;;2.57;;
71087;SDS011;58747;50.674;4.616;2023-01-13T16:44:11;9.87;;;2.57;;
71087;SDS011;58747;50.674;4.616;2023-01-13T16:46:36;12.35;;;2.30;;
71087;SDS011;58747;50.674;4.616;2023-01-13T16:49:03;12.83;;;2.83;;
71087;SDS011;58747;50.674;4.616;2023-01-13T16:51:29;15.18;;;2.95;;
71087;SDS011;58747;50.674;4.616;2023-01-13T16:53:55;14.90;;;3.30;;
71087;SDS011;58747;50.674;4.616;2023-01-13T16:56:22;9.47;;;2.40;;
71087;SDS011;58747;50.674;4.616;2023-01-13T16:58:53;10.88;;;2.30;;
71087;SDS011;58747;50.674;4.616;2023-01-13T17:01:27;10.02;;;2.17;;
71087;SDS011;58747;50.674;4.616;2023-01-13T17:03:57;15.05;;;2.20;;
71087;SDS011;58747;50.674;4.616;2023-01-13T17:06:25;14.73;;;2.73;;
71087;SDS011;58747;50.674;4.616;2023-01-13T17:08:54;19.38;;;3.35;;
71087;SDS011;58747;50.674;4.616;2023-01-13T17:11:24;19.45;;;2.88;;
71087;SDS011;58747;50.674;4.616;2023-01-13T17:13:49;18.50;;;2.70;;
71087;SDS011;58747;50.674;4.616;2023-01-13T17:16:19;15.37;;;2.47;;
71087;SDS011;58747;50.674;4.616;2023-01-13T17:18:46;11.70;;;1.98;;
71087;SDS011;58747;50.674;4.616;2023-01-13T17:21:11;15.03;;;3.30;;
71087;SDS011;58747;50.674;4.616;2023-01-13T17:23:37;8.07;;;1.77;;
71087;SDS011;58747;50.674;4.616;2023-01-13T17:26:02;15.53;;;2.57;;
71087;SDS011;58747;50.674;4.616;2023-01-13T17:28:28;13.77;;;2.17;;
71087;SDS011;58747;50.674;4.616;2023-01-13T17:30:53;11.23;;;2.30;;
71087;SDS011;58747;50.674;4.616;2023-01-13T17:33:18;17.27;;;3.20;;
71087;SDS011;58747;50.674;4.616;2023-01-13T17:35:44;12.37;;;3.13;;
71087;SDS011;58747;50.674;4.616;2023-01-13T17:38:10;16.97;;;3.13;;
71087;SDS011;58747;50.674;4.616;2023-01-13T17:40:35;21.15;;;2.95;;
71087;SDS011;58747;50.674;4.616;2023-01-13T17:43:01;20.87;;;3.50;;
71087;SDS011;58747;50.674;4.616;2023-01-13T17:45:26;15.17;;;2.80;;